Aviation Digital Data Service (ADDS)

Output produced by TAFs form (1737 UTC 22 August 2014)
found at http://aviationweather.gov/adds/tafs/
 
KMAF 221722Z 2218/2318 18012KT P6SM FEW200 
     FM221900 17015G20KT P6SM FEW090 SCT250 
     FM230300 16011KT P6SM BKN200 
     FM231500 18015KT P6SM BKN200